createdAt,value
2017-09-28T00:00:22.370Z,0
2017-09-28T00:01:30.913Z,0
2017-09-28T00:02:39.779Z,0
2017-09-28T00:03:48.321Z,0
2017-09-28T00:04:57.182Z,0
2017-09-28T00:06:06.050Z,0
2017-09-28T00:07:14.589Z,0
2017-09-28T00:08:23.127Z,0
2017-09-28T00:09:32.002Z,0
2017-09-28T00:10:41.190Z,0
2017-09-28T00:11:50.055Z,0
2017-09-28T00:12:58.599Z,0
2017-09-28T00:14:07.462Z,0
2017-09-28T00:15:16.651Z,0
2017-09-28T00:16:25.200Z,0
2017-09-28T00:17:33.736Z,0
2017-09-28T00:18:42.602Z,0
2017-09-28T00:19:51.141Z,0
2017-09-28T00:21:00.009Z,0
2017-09-28T00:22:09.198Z,0
2017-09-28T00:23:18.061Z,0
2017-09-28T00:24:27.246Z,0
2017-09-28T00:25:36.435Z,0
2017-09-28T00:26:45.620Z,0
2017-09-28T00:27:54.809Z,0
2017-09-28T00:29:03.672Z,0
2017-09-28T00:30:12.540Z,0
2017-09-28T00:31:21.405Z,0
2017-09-28T00:32:30.594Z,0
2017-09-28T00:33:39.459Z,0
2017-09-28T00:34:48.951Z,0
2017-09-28T00:35:57.492Z,0
2017-09-28T00:37:06.360Z,0
2017-09-28T00:38:15.549Z,0
2017-09-28T00:39:24.738Z,0
2017-09-28T00:40:33.599Z,0
2017-09-28T00:41:42.140Z,0
2017-09-28T00:42:51.655Z,0
2017-09-28T00:44:00.189Z,0
2017-09-28T00:45:08.730Z,0
2017-09-28T00:46:17.271Z,0
2017-09-28T00:47:26.159Z,0
2017-09-28T00:48:34.703Z,0
2017-09-28T00:49:43.892Z,0
2017-09-28T00:50:52.756Z,0
2017-09-28T00:52:01.618Z,0
2017-09-28T00:53:11.129Z,0
2017-09-28T00:54:19.671Z,0
2017-09-28T00:55:28.213Z,0
2017-09-28T00:56:37.076Z,0
2017-09-28T00:57:45.939Z,0
2017-09-28T00:58:54.479Z,0
2017-09-28T01:00:03.342Z,0
2017-09-28T01:01:12.206Z,0
2017-09-28T01:02:21.069Z,0
2017-09-28T01:03:30.254Z,0
2017-09-28T01:04:38.795Z,0
2017-09-28T01:05:48.304Z,0
2017-09-28T01:06:57.168Z,0
2017-09-28T01:08:05.711Z,0
2017-09-28T01:09:14.584Z,0
2017-09-28T01:10:23.452Z,0
2017-09-28T01:11:32.317Z,0
2017-09-28T01:12:41.179Z,0
2017-09-28T01:13:49.717Z,0
2017-09-28T01:14:58.259Z,0
2017-09-28T01:16:06.801Z,0
2017-09-28T01:17:15.665Z,0
2017-09-28T01:18:24.852Z,0
2017-09-28T01:19:33.392Z,0
2017-09-28T01:20:41.937Z,0
2017-09-28T01:21:50.798Z,0
2017-09-28T01:22:59.339Z,0
2017-09-28T01:24:08.848Z,0
2017-09-28T01:25:17.389Z,0
2017-09-28T01:26:25.931Z,0
2017-09-28T01:27:34.801Z,0
2017-09-28T01:28:43.667Z,0
2017-09-28T01:29:52.207Z,0
2017-09-28T01:31:01.072Z,0
2017-09-28T01:32:09.610Z,0
2017-09-28T01:33:18.479Z,0
2017-09-28T01:34:27.345Z,0
2017-09-28T01:35:36.207Z,0
2017-09-28T01:36:45.072Z,0
2017-09-28T01:37:53.941Z,0
2017-09-28T01:39:03.133Z,0
2017-09-28T01:40:12.320Z,0
2017-09-28T01:41:20.862Z,0
2017-09-28T01:42:31.425Z,0
2017-09-28T01:43:40.286Z,0
2017-09-28T01:44:49.477Z,0
2017-09-28T01:45:58.342Z,0
2017-09-28T01:47:07.207Z,0
2017-09-28T01:48:16.392Z,0
2017-09-28T01:49:25.257Z,0
2017-09-28T01:50:33.796Z,0
2017-09-28T01:51:42.339Z,0
2017-09-28T01:52:51.527Z,0
2017-09-28T01:54:00.389Z,0
2017-09-28T01:55:08.931Z,0
2017-09-28T01:56:17.793Z,0
2017-09-28T01:57:26.659Z,0
2017-09-28T01:58:35.536Z,0
2017-09-28T01:59:44.722Z,0
2017-09-28T02:00:53.585Z,0
2017-09-28T02:02:02.450Z,0
2017-09-28T02:03:11.319Z,0
2017-09-28T02:04:20.181Z,0
2017-09-28T02:05:29.044Z,0
2017-09-28T02:06:37.911Z,0
2017-09-28T02:07:47.097Z,0
2017-09-28T02:08:56.283Z,0
2017-09-28T02:10:05.467Z,0
2017-09-28T02:11:14.329Z,0
2017-09-28T02:12:23.192Z,0
2017-09-28T02:13:31.730Z,0
2017-09-28T02:14:40.926Z,0
2017-09-28T02:15:50.438Z,0
2017-09-28T02:16:59.304Z,0
2017-09-28T02:18:07.844Z,0
2017-09-28T02:19:16.708Z,0
2017-09-28T02:20:25.245Z,0
2017-09-28T02:21:33.787Z,0
2017-09-28T02:22:42.326Z,0
2017-09-28T02:23:51.514Z,0
2017-09-28T02:25:00.377Z,0
2017-09-28T02:26:09.237Z,0
2017-09-28T02:27:18.104Z,0
2017-09-28T02:28:27.294Z,0
2017-09-28T02:29:36.481Z,0
2017-09-28T02:30:45.472Z,0
2017-09-28T02:31:54.344Z,0
2017-09-28T02:33:02.882Z,0
2017-09-28T02:34:11.749Z,0
2017-09-28T02:35:20.613Z,0
2017-09-28T02:36:29.155Z,0
2017-09-28T02:37:38.479Z,0
2017-09-28T02:38:47.680Z,0
2017-09-28T02:39:57.196Z,0
2017-09-28T02:41:06.383Z,0
2017-09-28T02:42:14.925Z,0
2017-09-28T02:43:23.812Z,0
2017-09-28T02:44:32.328Z,0
2017-09-28T02:45:41.191Z,0
2017-09-28T02:46:49.730Z,0
2017-09-28T02:47:58.594Z,0
2017-09-28T02:49:08.113Z,0
2017-09-28T02:50:16.977Z,0
2017-09-28T02:51:26.166Z,0
2017-09-28T02:52:35.363Z,0
2017-09-28T02:53:44.233Z,0
2017-09-28T02:54:53.096Z,0
2017-09-28T02:56:01.637Z,0
2017-09-28T02:57:10.500Z,0
2017-09-28T02:58:19.369Z,0
2017-09-28T02:59:28.554Z,0
2017-09-28T03:00:38.062Z,0
2017-09-28T03:01:47.247Z,0
2017-09-28T03:02:56.111Z,0
2017-09-28T03:04:04.649Z,0
2017-09-28T03:05:13.188Z,0
2017-09-28T03:06:22.051Z,0
2017-09-28T03:07:30.916Z,0
2017-09-28T03:08:39.790Z,0
2017-09-28T03:09:48.653Z,0
2017-09-28T03:10:57.520Z,0
2017-09-28T03:12:06.383Z,0
2017-09-28T03:13:15.246Z,0
2017-09-28T03:14:24.438Z,0
2017-09-28T03:15:32.979Z,0
2017-09-28T03:16:42.166Z,0
2017-09-28T03:17:51.032Z,0
2017-09-28T03:18:59.573Z,0
2017-09-28T03:20:08.118Z,0
2017-09-28T03:21:17.305Z,0
2017-09-28T03:22:26.171Z,0
2017-09-28T03:23:34.710Z,0
2017-09-28T03:24:43.252Z,0
2017-09-28T03:25:52.439Z,0
2017-09-28T03:27:00.984Z,0
2017-09-28T03:28:09.527Z,0
2017-09-28T03:29:18.065Z,0
2017-09-28T03:30:26.609Z,0
2017-09-28T03:31:35.473Z,0
2017-09-28T03:32:44.338Z,0
2017-09-28T03:33:53.526Z,0
2017-09-28T03:35:02.714Z,0
2017-09-28T03:36:11.576Z,0
2017-09-28T03:37:20.219Z,0
2017-09-28T03:38:29.082Z,0
2017-09-28T03:39:37.944Z,0
2017-09-28T03:40:46.486Z,0
2017-09-28T03:41:55.351Z,0
2017-09-28T03:43:04.215Z,0
2017-09-28T03:44:13.406Z,0
2017-09-28T03:45:22.277Z,0
2017-09-28T03:46:32.593Z,0
2017-09-28T03:47:41.134Z,0
2017-09-28T03:48:50.003Z,0
2017-09-28T03:49:58.544Z,0
2017-09-28T03:51:07.407Z,0
2017-09-28T03:52:16.270Z,0
2017-09-28T03:53:24.813Z,0
2017-09-28T03:54:33.999Z,0
2017-09-28T03:55:42.545Z,0
2017-09-28T03:56:51.409Z,0
2017-09-28T03:57:59.951Z,0
2017-09-28T03:59:08.490Z,0
2017-09-28T04:00:17.355Z,0
2017-09-28T04:01:26.025Z,0
2017-09-28T04:02:34.886Z,0
2017-09-28T04:03:43.429Z,0
2017-09-28T04:04:51.966Z,0
2017-09-28T04:06:01.157Z,0
2017-09-28T04:07:10.381Z,0
2017-09-28T04:08:19.575Z,0
2017-09-28T04:09:28.437Z,0
2017-09-28T04:10:36.978Z,0
2017-09-28T04:11:45.845Z,0
2017-09-28T04:12:54.385Z,0
2017-09-28T04:14:03.572Z,0
2017-09-28T04:15:12.439Z,0
2017-09-28T04:16:21.307Z,0
2017-09-28T04:17:30.826Z,0
2017-09-28T04:18:39.367Z,0
2017-09-28T04:19:47.914Z,0
2017-09-28T04:20:56.454Z,0
2017-09-28T04:22:05.645Z,0
2017-09-28T04:23:14.833Z,0
2017-09-28T04:24:23.697Z,0
2017-09-28T04:25:32.884Z,0
2017-09-28T04:26:41.424Z,0
2017-09-28T04:27:50.288Z,0
2017-09-28T04:28:59.150Z,0
2017-09-28T04:30:08.021Z,0
2017-09-28T04:31:16.884Z,0
2017-09-28T04:32:25.423Z,0
2017-09-28T04:33:34.286Z,0
2017-09-28T04:34:43.161Z,0
2017-09-28T04:35:52.347Z,0
2017-09-28T04:37:01.221Z,0
2017-09-28T04:38:10.093Z,0
2017-09-28T04:39:18.637Z,0
2017-09-28T04:40:27.504Z,0
2017-09-28T04:41:36.045Z,0
2017-09-28T04:42:44.906Z,0
2017-09-28T04:43:54.421Z,0
2017-09-28T04:45:03.287Z,0
2017-09-28T04:46:12.153Z,0
2017-09-28T04:47:21.664Z,0
2017-09-28T04:48:30.527Z,0
2017-09-28T04:49:39.083Z,0
2017-09-28T04:50:47.611Z,0
2017-09-28T04:51:56.796Z,0
2017-09-28T04:53:05.338Z,0
2017-09-28T04:54:14.203Z,0
2017-09-28T04:55:23.070Z,0
2017-09-28T04:56:31.609Z,0
2017-09-28T04:57:40.147Z,0
2017-09-28T04:58:48.686Z,0
2017-09-28T04:59:57.550Z,0
2017-09-28T05:01:06.093Z,0
2017-09-28T05:02:15.279Z,0
2017-09-28T05:03:24.469Z,0
2017-09-28T05:04:33.333Z,0
2017-09-28T05:05:42.201Z,0
2017-09-28T05:06:51.064Z,0
2017-09-28T05:07:59.931Z,0
2017-09-28T05:09:08.795Z,0
2017-09-28T05:10:17.336Z,0
2017-09-28T05:11:26.523Z,0
2017-09-28T05:12:35.392Z,0
2017-09-28T05:13:44.585Z,0
2017-09-28T05:14:53.454Z,0
2017-09-28T05:16:01.993Z,0
2017-09-28T05:17:11.184Z,0
2017-09-28T05:18:19.729Z,0
2017-09-28T05:19:28.272Z,0
2017-09-28T05:20:37.131Z,0
2017-09-28T05:21:46.000Z,0
2017-09-28T05:22:54.537Z,0
2017-09-28T05:24:03.399Z,0
2017-09-28T05:25:11.942Z,0
2017-09-28T05:26:20.481Z,0
2017-09-28T05:27:29.343Z,0
2017-09-28T05:28:37.887Z,0
2017-09-28T05:29:47.071Z,5
2017-09-28T05:30:55.934Z,5
2017-09-28T05:32:04.798Z,5
2017-09-28T05:33:13.665Z,5
2017-09-28T05:34:22.853Z,5
2017-09-28T05:35:31.715Z,5
2017-09-28T05:36:40.256Z,5
2017-09-28T05:37:48.800Z,5
2017-09-28T05:38:58.018Z,5
2017-09-28T05:40:07.210Z,5
2017-09-28T05:41:15.747Z,5
2017-09-28T05:42:24.619Z,5
2017-09-28T05:43:34.032Z,5
2017-09-28T05:44:43.222Z,5
2017-09-28T05:45:51.764Z,5
2017-09-28T05:47:00.628Z,5
2017-09-28T05:48:09.812Z,10
2017-09-28T05:49:18.354Z,10
2017-09-28T05:50:26.897Z,10
2017-09-28T05:51:35.784Z,10
2017-09-28T05:52:44.334Z,10
2017-09-28T05:53:53.200Z,10
2017-09-28T05:55:02.075Z,15
2017-09-28T05:56:11.444Z,15
2017-09-28T05:57:20.022Z,15
2017-09-28T05:58:29.218Z,15
2017-09-28T05:59:38.093Z,15
2017-09-28T06:00:46.960Z,15
2017-09-28T06:01:56.149Z,15
2017-09-28T06:03:05.344Z,15
2017-09-28T06:04:14.210Z,15
2017-09-28T06:05:23.404Z,20
2017-09-28T06:06:32.594Z,20
2017-09-28T06:07:42.397Z,20
2017-09-28T06:08:52.167Z,20
2017-09-28T06:10:01.406Z,20
2017-09-28T06:11:10.198Z,20
2017-09-28T06:12:18.744Z,25
2017-09-28T06:13:27.281Z,25
2017-09-28T06:14:36.141Z,25
2017-09-28T06:15:44.685Z,25
2017-09-28T06:16:53.552Z,30
2017-09-28T06:18:02.416Z,30
2017-09-28T06:19:11.802Z,30
2017-09-28T06:20:20.339Z,35
2017-09-28T06:21:29.203Z,35
2017-09-28T06:22:38.393Z,30
2017-09-28T06:23:46.935Z,30
2017-09-28T06:24:56.121Z,30
2017-09-28T06:26:04.913Z,35
2017-09-28T06:27:13.785Z,35
2017-09-28T06:28:23.403Z,40
2017-09-28T06:29:31.942Z,45
2017-09-28T06:30:41.127Z,45
2017-09-28T06:31:50.315Z,50
2017-09-28T06:32:58.856Z,50
2017-09-28T06:34:07.718Z,50
2017-09-28T06:35:16.260Z,50
2017-09-28T06:36:25.773Z,45
2017-09-28T06:37:34.636Z,45
2017-09-28T06:38:43.175Z,35
2017-09-28T06:39:52.043Z,35
2017-09-28T06:41:00.905Z,30
2017-09-28T06:42:09.768Z,30
2017-09-28T06:43:19.289Z,30
2017-09-28T06:44:28.477Z,30
2017-09-28T06:45:37.344Z,30
2017-09-28T06:46:46.358Z,30
2017-09-28T06:47:55.222Z,30
2017-09-28T06:49:04.084Z,30
2017-09-28T06:50:13.277Z,30
2017-09-28T06:51:22.480Z,30
2017-09-28T06:52:31.686Z,35
2017-09-28T06:53:40.553Z,35
2017-09-28T06:54:49.097Z,35
2017-09-28T06:55:57.636Z,35
2017-09-28T06:57:06.824Z,40
2017-09-28T06:58:16.024Z,40
2017-09-28T06:59:24.888Z,40
2017-09-28T07:00:33.427Z,40
2017-09-28T07:01:41.968Z,40
2017-09-28T07:02:50.856Z,40
2017-09-28T07:03:59.974Z,40
2017-09-28T07:05:08.842Z,40
2017-09-28T07:06:17.712Z,45
2017-09-28T07:07:26.929Z,50
2017-09-28T07:08:35.472Z,50
2017-09-28T07:09:44.496Z,55
2017-09-28T07:10:53.683Z,60
2017-09-28T07:12:02.873Z,65
2017-09-28T07:13:11.743Z,60
2017-09-28T07:14:20.615Z,60
2017-09-28T07:15:29.479Z,55
2017-09-28T07:16:38.025Z,50
2017-09-28T07:17:46.981Z,45
2017-09-28T07:18:55.528Z,45
2017-09-28T07:20:04.743Z,45
2017-09-28T07:21:14.211Z,45
2017-09-28T07:22:22.817Z,45
2017-09-28T07:23:31.360Z,45
2017-09-28T07:24:40.186Z,50
2017-09-28T07:25:49.064Z,50
2017-09-28T07:26:57.662Z,50
2017-09-28T07:28:06.626Z,55
2017-09-28T07:29:15.823Z,55
2017-09-28T07:30:24.396Z,55
2017-09-28T07:31:33.617Z,60
2017-09-28T07:32:42.483Z,60
2017-09-28T07:33:51.028Z,60
2017-09-28T07:34:59.891Z,60
2017-09-28T07:36:08.760Z,60
2017-09-28T07:37:17.623Z,55
2017-09-28T07:38:28.043Z,60
2017-09-28T07:39:37.240Z,65
2017-09-28T07:40:46.125Z,75
2017-09-28T07:41:54.709Z,80
2017-09-28T07:43:03.580Z,80
2017-09-28T07:44:12.125Z,80
2017-09-28T07:45:20.667Z,80
2017-09-28T07:46:29.210Z,75
2017-09-28T07:47:37.755Z,70
2017-09-28T07:48:46.946Z,70
2017-09-28T07:49:55.815Z,70
2017-09-28T07:51:05.659Z,70
2017-09-28T07:52:14.524Z,65
2017-09-28T07:53:23.391Z,60
2017-09-28T07:54:33.231Z,50
2017-09-28T07:55:42.474Z,50
2017-09-28T07:56:51.342Z,50
2017-09-28T07:57:59.885Z,45
2017-09-28T07:59:08.433Z,50
2017-09-28T08:00:16.972Z,50
2017-09-28T08:01:25.842Z,60
2017-09-28T08:02:34.385Z,65
2017-09-28T08:03:42.934Z,65
2017-09-28T08:04:51.478Z,65
2017-09-28T08:06:00.023Z,65
2017-09-28T08:07:08.595Z,70
2017-09-28T08:08:17.464Z,75
2017-09-28T08:09:26.339Z,75
2017-09-28T08:10:35.243Z,80
2017-09-28T08:11:43.788Z,90
2017-09-28T08:12:52.987Z,105
2017-09-28T08:14:01.879Z,120
2017-09-28T08:15:11.080Z,130
2017-09-28T08:16:19.954Z,145
2017-09-28T08:17:28.506Z,155
2017-09-28T08:18:37.370Z,160
2017-09-28T08:19:46.242Z,175
2017-09-28T08:20:55.426Z,195
2017-09-28T08:22:04.616Z,210
2017-09-28T08:23:13.499Z,220
2017-09-28T08:24:22.052Z,210
2017-09-28T08:25:30.596Z,200
2017-09-28T08:26:39.142Z,205
2017-09-28T08:27:47.685Z,205
2017-09-28T08:28:56.873Z,195
2017-09-28T08:30:05.413Z,190
2017-09-28T08:31:13.956Z,175
2017-09-28T08:32:23.145Z,165
2017-09-28T08:33:32.009Z,160
2017-09-28T08:34:40.873Z,165
2017-09-28T08:35:49.741Z,175
2017-09-28T08:36:58.286Z,185
2017-09-28T08:38:06.830Z,190
2017-09-28T08:39:16.022Z,190
2017-09-28T08:40:24.577Z,190
2017-09-28T08:41:33.449Z,180
2017-09-28T08:42:42.312Z,165
2017-09-28T08:43:51.174Z,155
2017-09-28T08:44:59.724Z,155
2017-09-28T08:46:08.303Z,155
2017-09-28T08:47:17.187Z,160
2017-09-28T08:48:26.054Z,150
2017-09-28T08:49:34.918Z,130
2017-09-28T08:50:44.110Z,125
2017-09-28T08:51:53.301Z,125
2017-09-28T08:53:02.330Z,125
2017-09-28T08:54:11.195Z,115
2017-09-28T08:55:20.384Z,85
2017-09-28T08:56:28.929Z,70
2017-09-28T08:57:37.475Z,80
2017-09-28T08:58:46.665Z,110
2017-09-28T08:59:55.859Z,135
2017-09-28T09:01:05.196Z,150
2017-09-28T09:02:14.107Z,160
2017-09-28T09:03:23.313Z,160
2017-09-28T09:04:32.220Z,160
2017-09-28T09:05:41.408Z,165
2017-09-28T09:06:50.138Z,165
2017-09-28T09:07:59.633Z,165
2017-09-28T09:09:08.679Z,160
2017-09-28T09:10:18.268Z,155
2017-09-28T09:11:27.355Z,145
2017-09-28T09:12:36.235Z,135
2017-09-28T09:13:45.438Z,130
2017-09-28T09:14:54.305Z,125
2017-09-28T09:16:03.182Z,125
2017-09-28T09:17:11.747Z,130
2017-09-28T09:18:20.615Z,145
2017-09-28T09:19:30.265Z,160
2017-09-28T09:20:39.523Z,155
2017-09-28T09:21:48.929Z,130
2017-09-28T09:22:57.860Z,100
2017-09-28T09:24:07.053Z,90
